Time;durP1;ratioP1;P1;durP2;ratioP2;P2;SDS_P1;SDS_P2;PMS_P1;PMS_P2;Temp;Humidity;BMP_temperature;BMP_pressure;BME280_temperature;BME280_humidity;BME280_pressure;Samples;Min_cycle;Max_cycle;Signal;HPM_P1;HPM_P2
2021/03/22 00:00:24;;;;;;;17.43;10.20;;;6.10;99.90;;;;;;5074765;28;20174;-62
2021/03/22 00:02:49;;;;;;;22.23;11.37;;;6.20;99.90;;;;;;5075091;28;20178;-62
2021/03/22 00:05:15;;;;;;;19.13;11.53;;;6.30;99.90;;;;;;5075490;28;20979;-62
2021/03/22 00:07:41;;;;;;;21.67;11.00;;;6.30;99.90;;;;;;5075520;28;20162;-61
2021/03/22 00:10:07;;;;;;;18.53;10.90;;;6.30;99.90;;;;;;5075413;28;20187;-60
2021/03/22 00:12:33;;;;;;;18.47;11.03;;;6.50;99.90;;;;;;5075073;28;20576;-62
2021/03/22 00:14:59;;;;;;;18.77;9.63;;;6.50;99.90;;;;;;5056593;28;20507;-62
2021/03/22 00:17:24;;;;;;;17.33;10.40;;;6.50;99.90;;;;;;5074514;28;20177;-62
2021/03/22 00:19:50;;;;;;;20.13;11.00;;;6.40;99.90;;;;;;5075166;28;20243;-61
2021/03/22 00:22:16;;;;;;;20.10;11.33;;;6.40;99.90;;;;;;5075267;28;20196;-62
2021/03/22 00:24:42;;;;;;;22.33;11.53;;;6.50;99.90;;;;;;5075019;28;20209;-60
2021/03/22 00:27:08;;;;;;;27.00;11.97;;;6.60;99.90;;;;;;5075444;28;20508;-61
2021/03/22 00:29:33;;;;;;;25.47;11.47;;;6.50;99.90;;;;;;5074649;28;20538;-62
2021/03/22 00:31:59;;;;;;;23.73;11.60;;;6.30;99.90;;;;;;5073634;28;20484;-61
2021/03/22 00:34:24;;;;;;;20.17;11.23;;;6.40;99.90;;;;;;5082883;28;20188;-61
2021/03/22 00:36:50;;;;;;;29.90;11.40;;;6.50;99.90;;;;;;5075015;28;20209;-61
2021/03/22 00:39:15;;;;;;;19.90;9.47;;;6.30;99.90;;;;;;5074291;28;20174;-61
2021/03/22 00:41:41;;;;;;;24.70;11.47;;;6.30;99.90;;;;;;5074271;28;20535;-62
2021/03/22 00:44:07;;;;;;;19.17;10.03;;;6.40;99.90;;;;;;5074059;28;20225;-62
2021/03/22 00:46:33;;;;;;;13.93;9.80;;;6.30;99.90;;;;;;5073797;28;20182;-62
2021/03/22 00:48:58;;;;;;;18.67;10.90;;;6.20;99.90;;;;;;5073715;28;20155;-62
2021/03/22 00:51:24;;;;;;;23.30;11.07;;;6.30;99.90;;;;;;5058418;28;20396;-61
2021/03/22 00:53:49;;;;;;;18.70;10.23;;;6.30;99.90;;;;;;5074065;28;20182;-62
2021/03/22 00:56:15;;;;;;;20.57;10.80;;;6.40;99.90;;;;;;5073764;28;20182;-62
2021/03/22 00:58:41;;;;;;;18.20;8.83;;;6.40;99.90;;;;;;5073775;28;20651;-60
2021/03/22 01:01:08;;;;;;;26.10;9.70;;;6.30;99.90;;;;;;5073786;28;20154;-62
2021/03/22 01:03:35;;;;;;;20.73;10.33;;;6.20;99.90;;;;;;5073604;28;20733;-60
2021/03/22 01:06:03;;;;;;;17.30;9.23;;;6.20;99.90;;;;;;5074223;28;20447;-61
2021/03/22 01:08:32;;;;;;;19.77;10.83;;;6.10;99.90;;;;;;5073910;28;20399;-62
2021/03/22 01:11:07;;;;;;;21.47;11.00;;;6.20;99.90;;;;;;5074215;28;20403;-62
2021/03/22 01:13:39;;;;;;;20.50;9.90;;;6.20;99.90;;;;;;5073909;28;20389;-62
2021/03/22 01:16:06;;;;;;;18.57;9.93;;;6.30;99.90;;;;;;5073772;28;20507;-62
2021/03/22 01:18:36;;;;;;;23.00;9.50;;;6.50;99.90;;;;;;5073088;28;20393;-62
2021/03/22 01:21:12;;;;;;;24.20;9.67;;;6.60;99.90;;;;;;5073705;28;20396;-61
2021/03/22 01:23:38;;;;;;;23.80;10.37;;;6.50;99.90;;;;;;5055545;28;20432;-62
2021/03/22 01:26:06;;;;;;;25.37;10.50;;;6.40;99.90;;;;;;5073302;28;20475;-61
2021/03/22 01:28:32;;;;;;;20.20;9.23;;;6.20;99.90;;;;;;5073643;28;20223;-62
2021/03/22 01:31:00;;;;;;;17.93;9.23;;;6.20;99.90;;;;;;5073667;28;20405;-62
2021/03/22 01:33:29;;;;;;;17.10;9.27;;;6.30;99.90;;;;;;5072850;28;20408;-61
2021/03/22 01:36:00;;;;;;;15.03;9.70;;;6.30;99.90;;;;;;5073236;28;20462;-62
2021/03/22 01:38:27;;;;;;;16.63;7.93;;;6.30;99.90;;;;;;5073491;28;20419;-62
2021/03/22 01:41:34;;;;;;;13.70;7.70;;;6.30;99.90;;;;;;5073146;28;20408;-62
2021/03/22 01:44:17;;;;;;;21.30;10.03;;;6.20;99.90;;;;;;5033551;28;20466;-62
2021/03/22 01:46:46;;;;;;;23.80;9.37;;;6.20;99.90;;;;;;5073135;28;20929;-62
2021/03/22 01:49:12;;;;;;;15.87;8.63;;;6.30;99.90;;;;;;5072839;28;20927;-61
2021/03/22 01:51:39;;;;;;;23.80;8.87;;;6.30;99.90;;;;;;5073210;28;20827;-61
2021/03/22 01:54:07;;;;;;;21.10;8.80;;;6.30;99.90;;;;;;5073535;28;20404;-61
2021/03/22 01:56:41;;;;;;;23.30;8.70;;;6.30;99.90;;;;;;5078677;28;20429;-61
2021/03/22 01:59:10;;;;;;;16.87;8.17;;;6.30;99.90;;;;;;5082724;28;20393;-62
2021/03/22 02:01:37;;;;;;;22.60;7.93;;;6.40;99.90;;;;;;5077585;28;20403;-61
2021/03/22 02:04:03;;;;;;;20.27;9.53;;;6.40;99.90;;;;;;5077301;28;20974;-61
2021/03/22 02:06:29;;;;;;;24.63;8.10;;;6.30;99.90;;;;;;5078239;28;20793;-61
2021/03/22 02:08:55;;;;;;;22.33;8.80;;;6.20;99.90;;;;;;5079642;28;20399;-62
2021/03/22 02:11:27;;;;;;;17.50;8.07;;;6.30;99.90;;;;;;5077374;28;20170;-62
2021/03/22 02:13:55;;;;;;;22.30;9.20;;;6.30;99.90;;;;;;5076942;28;20432;-61
2021/03/22 02:16:40;;;;;;;19.97;8.20;;;6.30;99.90;;;;;;5076772;28;20916;-62
2021/03/22 02:19:33;;;;;;;21.07;7.73;;;6.20;99.90;;;;;;5076680;28;20472;-62
2021/03/22 02:22:02;;;;;;;25.90;10.63;;;6.30;99.90;;;;;;5076471;28;20392;-61
2021/03/22 02:24:45;;;;;;;22.70;8.67;;;6.20;99.90;;;;;;5076890;28;20435;-62
2021/03/22 02:27:29;;;;;;;22.17;9.30;;;6.10;99.90;;;;;;5075736;28;20420;-62
2021/03/22 02:30:10;;;;;;;21.53;8.50;;;6.10;99.90;;;;;;5076890;28;20397;-62
2021/03/22 02:32:56;;;;;;;19.43;8.60;;;6.10;99.90;;;;;;5077049;28;20385;-61
2021/03/22 02:35:42;;;;;;;20.80;8.03;;;6.10;99.90;;;;;;5035042;28;21079;-62
2021/03/22 02:38:18;;;;;;;23.20;8.90;;;6.20;99.90;;;;;;5076500;28;20429;-62
2021/03/22 02:40:52;;;;;;;18.20;7.00;;;6.20;99.90;;;;;;5076218;28;20380;-61
2021/03/22 02:43:17;;;;;;;22.50;9.37;;;6.20;99.90;;;;;;5076496;28;20373;-61
2021/03/22 02:45:43;;;;;;;18.60;7.90;;;6.10;99.90;;;;;;5076242;28;20447;-62
2021/03/22 02:48:17;;;;;;;29.30;9.17;;;6.20;99.90;;;;;;5075654;28;20159;-60
2021/03/22 02:50:45;;;;;;;20.53;7.10;;;6.30;99.90;;;;;;5080926;28;20157;-61
2021/03/22 02:53:19;;;;;;;15.43;7.37;;;6.30;99.90;;;;;;5092831;28;20427;-61
2021/03/22 02:55:57;;;;;;;23.53;9.07;;;6.10;99.90;;;;;;5083020;28;20517;-61
2021/03/22 02:58:28;;;;;;;21.57;7.40;;;6.20;99.90;;;;;;5056387;28;20423;-61
2021/03/22 03:01:02;;;;;;;20.60;8.17;;;6.30;99.90;;;;;;5056831;28;20389;-60
2021/03/22 03:03:30;;;;;;;19.80;7.17;;;6.20;99.90;;;;;;5056342;28;20385;-64
2021/03/22 03:05:56;;;;;;;20.50;6.70;;;6.00;99.90;;;;;;5056215;28;20928;-63
2021/03/22 03:08:34;;;;;;;21.70;6.57;;;6.10;99.90;;;;;;5055352;28;20402;-63
2021/03/22 03:11:00;;;;;;;24.60;8.40;;;6.20;99.90;;;;;;5055767;28;20158;-62
2021/03/22 03:13:27;;;;;;;20.60;7.00;;;6.10;99.90;;;;;;5056237;28;20835;-63
2021/03/22 03:15:52;;;;;;;25.10;7.60;;;6.10;99.90;;;;;;5060024;28;20435;-62
2021/03/22 03:18:18;;;;;;;16.80;7.43;;;6.20;99.90;;;;;;5085907;28;20434;-62
2021/03/22 03:20:44;;;;;;;21.50;6.53;;;6.20;99.90;;;;;;5076269;28;20173;-60
2021/03/22 03:23:10;;;;;;;18.00;6.40;;;6.10;99.90;;;;;;5085583;28;20404;-61
2021/03/22 03:25:36;;;;;;;22.60;6.67;;;6.10;99.90;;;;;;5090974;28;20201;-61
2021/03/22 03:28:01;;;;;;;13.40;6.10;;;6.10;99.90;;;;;;5075382;28;20405;-62
2021/03/22 03:30:31;;;;;;;15.63;6.37;;;6.20;99.90;;;;;;5074782;28;20198;-62
2021/03/22 03:32:57;;;;;;;15.93;5.83;;;6.30;99.90;;;;;;5075778;28;20166;-62
2021/03/22 03:35:26;;;;;;;15.50;7.17;;;6.20;99.90;;;;;;5091946;22;20585;-64
2021/03/22 03:37:53;;;;;;;16.80;6.20;;;6.30;99.90;;;;;;5083969;28;20814;-64
2021/03/22 03:40:25;;;;;;;19.10;7.30;;;6.20;99.90;;;;;;5066070;28;20418;-63
2021/03/22 03:42:51;;;;;;;25.93;7.50;;;6.10;99.90;;;;;;5079285;28;20836;-64
2021/03/22 03:45:17;;;;;;;15.40;7.03;;;6.00;99.90;;;;;;5095562;28;20512;-64
2021/03/22 03:47:45;;;;;;;12.83;6.00;;;6.10;99.90;;;;;;5095075;28;20172;-63
2021/03/22 03:50:20;;;;;;;15.43;5.83;;;5.90;99.90;;;;;;5095297;28;20400;-63
2021/03/22 03:52:45;;;;;;;19.93;6.67;;;6.10;99.90;;;;;;5095828;28;20468;-63
2021/03/22 03:55:12;;;;;;;15.20;6.67;;;6.20;99.90;;;;;;5095204;28;20491;-64
2021/03/22 03:57:38;;;;;;;20.03;7.63;;;6.10;99.90;;;;;;5094869;28;20326;-64
2021/03/22 04:00:10;;;;;;;16.87;6.10;;;6.00;99.90;;;;;;5095514;28;20478;-63
2021/03/22 04:02:36;;;;;;;18.37;6.17;;;6.10;99.90;;;;;;5095102;28;20536;-64
2021/03/22 04:05:03;;;;;;;15.70;6.60;;;6.00;99.90;;;;;;5077001;28;20438;-63
2021/03/22 04:07:28;;;;;;;22.27;6.50;;;6.10;99.90;;;;;;5095247;28;20169;-63
2021/03/22 04:09:54;;;;;;;23.97;6.73;;;5.80;99.90;;;;;;5095631;28;20741;-63
2021/03/22 04:12:19;;;;;;;23.37;7.03;;;5.80;99.90;;;;;;5095021;28;20586;-64
2021/03/22 04:14:45;;;;;;;13.60;6.23;;;5.90;99.90;;;;;;5095807;28;20252;-65
2021/03/22 04:17:11;;;;;;;13.30;5.80;;;5.90;99.90;;;;;;5093663;28;20670;-64
2021/03/22 04:19:36;;;;;;;17.83;5.77;;;5.80;99.90;;;;;;5094583;28;20157;-64
2021/03/22 04:22:02;;;;;;;21.27;6.70;;;5.70;99.90;;;;;;5076330;28;20660;-63
2021/03/22 04:24:27;;;;;;;23.33;6.83;;;5.60;99.90;;;;;;5094979;28;20654;-63
2021/03/22 04:26:53;;;;;;;20.20;6.97;;;5.60;99.90;;;;;;5093638;28;20562;-63
2021/03/22 04:29:18;;;;;;;17.47;5.53;;;5.50;99.90;;;;;;5094379;28;20248;-64
2021/03/22 04:31:44;;;;;;;21.30;6.13;;;5.50;99.90;;;;;;5094690;28;20162;-63
2021/03/22 04:34:12;;;;;;;21.20;6.03;;;5.60;99.90;;;;;;5094549;28;20668;-64
2021/03/22 04:36:37;;;;;;;13.53;5.10;;;5.80;99.90;;;;;;5094249;28;20209;-64
2021/03/22 04:39:05;;;;;;;11.30;4.50;;;5.80;99.90;;;;;;5094698;28;20418;-63
2021/03/22 04:41:31;;;;;;;18.27;5.90;;;5.70;99.90;;;;;;5094454;28;20545;-63
2021/03/22 04:43:57;;;;;;;14.40;5.70;;;5.70;99.90;;;;;;5093982;28;20403;-64
2021/03/22 04:46:23;;;;;;;24.13;6.57;;;5.70;99.90;;;;;;5094400;28;20950;-63
2021/03/22 04:48:49;;;;;;;16.70;6.00;;;5.80;99.90;;;;;;5093905;28;20510;-63
2021/03/22 04:51:15;;;;;;;10.90;4.90;;;5.80;99.90;;;;;;5094140;28;20409;-63
2021/03/22 04:53:40;;;;;;;13.60;6.07;;;6.00;99.90;;;;;;5094140;28;20188;-63
2021/03/22 04:56:07;;;;;;;13.23;5.97;;;5.70;99.90;;;;;;5093995;28;20423;-63
2021/03/22 04:58:35;;;;;;;11.87;6.27;;;5.70;99.90;;;;;;5096598;28;20169;-63
2021/03/22 05:01:01;;;;;;;20.50;5.50;;;5.60;99.90;;;;;;5094024;28;20971;-63
2021/03/22 05:03:27;;;;;;;18.37;6.87;;;5.70;99.90;;;;;;5075564;28;20403;-63
2021/03/22 05:05:53;;;;;;;21.37;6.63;;;5.60;99.90;;;;;;5093734;28;21008;-63
2021/03/22 05:08:21;;;;;;;20.93;7.17;;;5.70;99.90;;;;;;5093854;28;20153;-63
2021/03/22 05:10:48;;;;;;;17.80;6.37;;;5.80;99.90;;;;;;5093927;28;20907;-63
2021/03/22 05:13:15;;;;;;;19.13;6.13;;;5.70;99.90;;;;;;5093413;28;20411;-64
2021/03/22 05:15:41;;;;;;;17.67;6.00;;;5.70;99.90;;;;;;5093920;28;20763;-64
2021/03/22 05:18:08;;;;;;;15.77;5.90;;;5.70;99.90;;;;;;5093527;28;20410;-64
2021/03/22 05:20:39;;;;;;;11.57;5.70;;;5.70;99.90;;;;;;5093529;28;20411;-64
2021/03/22 05:23:08;;;;;;;14.67;4.47;;;5.90;99.90;;;;;;5093561;28;20410;-64
2021/03/22 05:25:34;;;;;;;16.33;5.37;;;5.90;99.90;;;;;;5101723;28;20465;-63
2021/03/22 05:28:00;;;;;;;13.50;7.37;;;6.00;99.90;;;;;;5113787;28;20402;-65
2021/03/22 05:30:26;;;;;;;12.07;4.93;;;5.90;99.90;;;;;;5114157;28;20497;-64
2021/03/22 05:32:59;;;;;;;9.77;4.10;;;5.80;99.90;;;;;;5113459;28;20403;-63
2021/03/22 05:35:26;;;;;;;10.53;4.70;;;5.80;99.90;;;;;;5113840;28;20786;-63
2021/03/22 05:37:53;;;;;;;12.70;4.83;;;5.70;99.90;;;;;;5114090;28;20813;-64
2021/03/22 05:40:26;;;;;;;10.07;4.43;;;5.80;99.90;;;;;;5113809;28;20495;-64
2021/03/22 05:43:09;;;;;;;17.57;5.03;;;5.70;99.90;;;;;;5113291;28;20430;-65
2021/03/22 05:45:42;;;;;;;11.90;5.23;;;5.60;99.90;;;;;;5113488;28;20510;-63
2021/03/22 05:48:22;;;;;;;14.90;5.53;;;5.50;99.90;;;;;;5112247;28;20771;-64
2021/03/22 05:50:57;;;;;;;13.83;4.70;;;5.50;99.90;;;;;;5113575;28;20375;-63
2021/03/22 05:53:31;;;;;;;11.50;4.50;;;5.40;99.90;;;;;;5113774;28;20746;-63
2021/03/22 05:55:59;;;;;;;11.80;4.43;;;5.40;99.90;;;;;;5113693;28;20422;-63
2021/03/22 05:58:31;;;;;;;20.13;6.50;;;5.30;99.90;;;;;;5113497;28;20398;-63
2021/03/22 06:01:20;;;;;;;12.37;4.10;;;5.40;99.90;;;;;;5113744;28;20395;-63
2021/03/22 06:03:52;;;;;;;14.50;4.73;;;5.50;99.90;;;;;;5113279;28;20791;-64
2021/03/22 06:06:38;;;;;;;15.70;4.80;;;5.50;99.90;;;;;;5113664;28;20411;-64
2021/03/22 06:09:25;;;;;;;15.90;6.20;;;5.60;99.90;;;;;;5113459;28;20374;-64
2021/03/22 06:11:58;;;;;;;14.90;5.37;;;5.70;99.90;;;;;;5113661;28;20406;-64
2021/03/22 06:14:41;;;;;;;17.10;5.87;;;5.70;99.90;;;;;;5113773;28;20457;-63
2021/03/22 06:17:25;;;;;;;17.20;4.93;;;5.60;99.90;;;;;;5113288;28;20800;-64
2021/03/22 06:19:55;;;;;;;21.10;6.27;;;5.70;99.90;;;;;;5112893;28;20374;-65
2021/03/22 06:22:24;;;;;;;15.37;7.00;;;5.80;99.90;;;;;;5113342;28;20410;-63
2021/03/22 06:24:50;;;;;;;11.77;4.97;;;5.80;99.90;;;;;;5113405;28;20471;-64
2021/03/22 06:27:16;;;;;;;18.03;5.60;;;5.80;99.90;;;;;;5111263;28;20434;-64
2021/03/22 06:29:43;;;;;;;16.50;7.10;;;6.00;99.90;;;;;;5111784;28;20399;-64
2021/03/22 06:32:20;;;;;;;22.43;7.03;;;6.00;99.90;;;;;;5082751;28;20180;-64
2021/03/22 06:35:01;;;;;;;17.83;7.03;;;5.90;99.90;;;;;;5074633;28;20423;-63
2021/03/22 06:37:30;;;;;;;19.07;6.70;;;5.80;99.90;;;;;;5092618;28;20450;-63
2021/03/22 06:40:10;;;;;;;17.80;6.63;;;5.80;99.90;;;;;;5093046;28;20460;-63
2021/03/22 06:42:37;;;;;;;22.07;7.73;;;5.80;99.90;;;;;;5092422;28;20386;-63
2021/03/22 06:45:05;;;;;;;19.93;6.23;;;5.80;99.90;;;;;;5095332;28;20446;-63
2021/03/22 06:47:34;;;;;;;19.77;6.70;;;5.90;99.90;;;;;;5096684;28;20423;-63
2021/03/22 06:50:22;;;;;;;13.90;6.90;;;5.90;99.90;;;;;;5096424;28;20403;-63
2021/03/22 06:52:49;;;;;;;20.73;6.30;;;5.70;99.90;;;;;;5083039;28;20415;-63
2021/03/22 06:55:32;;;;;;;21.83;6.73;;;5.60;99.90;;;;;;5098943;28;20411;-64
2021/03/22 06:57:58;;;;;;;17.03;6.03;;;5.60;99.90;;;;;;5116635;28;20410;-64
2021/03/22 07:00:34;;;;;;;18.57;6.73;;;5.60;99.90;;;;;;5117066;28;20762;-63
2021/03/22 07:03:03;;;;;;;15.33;6.00;;;5.70;99.90;;;;;;5116396;28;20386;-63
2021/03/22 07:05:33;;;;;;;17.97;6.27;;;5.80;99.90;;;;;;5097887;28;20454;-63
2021/03/22 07:08:01;;;;;;;16.63;5.90;;;5.80;99.90;;;;;;5116337;28;20441;-63
2021/03/22 07:10:37;;;;;;;14.10;5.60;;;5.90;99.90;;;;;;5116050;28;20442;-64
2021/03/22 07:13:13;;;;;;;21.13;6.20;;;5.90;99.90;;;;;;5116410;28;20792;-64
2021/03/22 07:15:39;;;;;;;15.90;6.13;;;5.90;99.90;;;;;;5116638;28;20469;-64
2021/03/22 07:18:16;;;;;;;14.80;6.00;;;6.00;99.90;;;;;;5117210;28;20797;-63
2021/03/22 07:20:45;;;;;;;17.37;5.83;;;6.20;99.90;;;;;;5116595;28;20387;-64
2021/03/22 07:23:26;;;;;;;16.50;5.07;;;6.20;99.90;;;;;;5098419;28;20403;-63
2021/03/22 07:26:03;;;;;;;17.73;6.03;;;6.10;99.90;;;;;;5115340;28;20993;-64
2021/03/22 07:28:51;;;;;;;22.30;5.87;;;6.10;99.90;;;;;;5116145;28;20377;-63
2021/03/22 07:31:30;;;;;;;25.03;6.67;;;6.10;99.90;;;;;;5115982;28;20921;-63
2021/03/22 07:34:29;;;;;;;16.17;5.47;;;6.10;99.90;;;;;;5116380;28;20435;-63
2021/03/22 07:37:16;;;;;;;17.80;5.70;;;6.10;99.90;;;;;;5115982;28;20478;-64
2021/03/22 07:40:22;;;;;;;20.00;6.07;;;6.20;99.90;;;;;;5116184;28;20462;-64
2021/03/22 07:43:08;;;;;;;12.83;5.30;;;6.30;99.90;;;;;;5115761;28;20755;-65
2021/03/22 07:45:42;;;;;;;21.57;7.47;;;6.30;99.90;;;;;;5084206;28;20458;-64
2021/03/22 07:48:40;;;;;;;14.43;5.87;;;6.30;99.90;;;;;;5115649;28;20410;-65
2021/03/22 07:51:27;;;;;;;20.80;6.03;;;6.40;99.90;;;;;;5084051;28;20411;-64
2021/03/22 07:53:57;;;;;;;15.83;5.70;;;6.30;99.90;;;;;;5115827;28;20394;-64
2021/03/22 07:56:38;;;;;;;19.10;5.43;;;6.20;99.90;;;;;;5115315;28;20430;-64
2021/03/22 07:59:25;;;;;;;11.40;5.03;;;6.20;99.90;;;;;;5115700;28;20736;-64
2021/03/22 08:02:33;;;;;;;15.93;6.10;;;6.50;99.90;;;;;;5115674;28;20756;-64
2021/03/22 08:05:23;;;;;;;14.27;4.57;;;6.50;99.90;;;;;;5084926;28;20446;-64
2021/03/22 08:08:09;;;;;;;19.90;5.93;;;6.20;99.90;;;;;;5115725;28;20375;-64
2021/03/22 08:10:42;;;;;;;10.83;5.17;;;6.10;99.90;;;;;;5115624;28;20383;-64
2021/03/22 08:13:27;;;;;;;10.70;5.40;;;6.10;99.90;;;;;;5115044;28;20399;-64
2021/03/22 08:15:58;;;;;;;14.57;4.77;;;6.30;99.90;;;;;;5115361;28;20946;-64
2021/03/22 08:18:51;;;;;;;10.50;4.63;;;6.40;99.90;;;;;;5114829;28;20899;-64
2021/03/22 08:21:39;;;;;;;11.90;4.57;;;6.50;99.90;;;;;;5115374;28;20417;-64
2021/03/22 08:24:25;;;;;;;11.40;4.50;;;6.40;99.90;;;;;;5113596;28;20424;-64
2021/03/22 08:27:01;;;;;;;11.60;4.17;;;6.50;99.90;;;;;;5114642;28;20422;-64
2021/03/22 08:29:41;;;;;;;11.33;4.00;;;6.70;99.90;;;;;;5096817;28;20918;-64
2021/03/22 08:32:12;;;;;;;9.70;3.80;;;6.90;99.90;;;;;;5114981;28;20438;-64
2021/03/22 08:34:43;;;;;;;6.57;3.60;;;7.00;99.90;;;;;;5114998;28;20418;-64
2021/03/22 08:37:17;;;;;;;10.60;3.60;;;7.00;99.90;;;;;;5114652;28;20441;-64
2021/03/22 08:40:06;;;;;;;13.10;3.70;;;6.90;99.90;;;;;;5115097;28;20410;-64
2021/03/22 08:42:39;;;;;;;10.50;3.93;;;7.00;99.90;;;;;;5114458;28;20397;-64
2021/03/22 08:45:22;;;;;;;14.50;3.67;;;6.90;99.90;;;;;;5114474;28;20434;-64
2021/03/22 08:48:09;;;;;;;7.43;3.50;;;7.10;99.90;;;;;;5114601;28;20387;-64
2021/03/22 08:50:37;;;;;;;15.97;4.40;;;7.00;99.90;;;;;;5112879;28;20915;-64
2021/03/22 08:53:09;;;;;;;12.77;5.00;;;7.10;99.90;;;;;;5114714;28;20394;-64
2021/03/22 08:55:40;;;;;;;14.40;4.40;;;7.20;99.90;;;;;;5114602;28;20792;-64
2021/03/22 08:58:24;;;;;;;16.30;4.87;;;7.20;99.90;;;;;;5110949;28;20446;-64
2021/03/22 09:00:53;;;;;;;11.03;3.90;;;7.30;99.90;;;;;;5114299;28;20741;-64
2021/03/22 09:03:34;;;;;;;14.23;4.53;;;7.30;99.90;;;;;;5114047;28;20855;-64
2021/03/22 09:06:06;;;;;;;10.30;4.70;;;7.60;99.90;;;;;;5113638;28;20820;-64
2021/03/22 09:09:02;;;;;;;13.47;4.67;;;7.40;99.90;;;;;;5114177;28;20397;-64
2021/03/22 09:11:38;;;;;;;8.93;4.83;;;7.40;99.90;;;;;;5107500;28;20486;-64
2021/03/22 09:14:16;;;;;;;11.43;3.43;;;7.20;99.90;;;;;;5114105;28;20466;-64
2021/03/22 09:16:41;;;;;;;17.10;4.40;;;6.70;99.90;;;;;;5114200;28;20419;-64
2021/03/22 09:19:10;;;;;;;11.90;3.97;;;6.90;99.90;;;;;;5113353;28;20410;-64
2021/03/22 09:21:44;;;;;;;7.83;3.57;;;6.90;99.90;;;;;;5113873;28;20176;-65
2021/03/22 09:27:16;;;;;;;8.53;2.70;;;7.00;99.90;;;;;;5073511;28;20431;-64
2021/03/22 09:29:47;;;;;;;6.47;2.80;;;6.90;99.90;;;;;;5073557;28;20726;-64
2021/03/22 09:32:26;;;;;;;8.07;3.70;;;6.90;99.90;;;;;;5073480;28;20415;-63
2021/03/22 09:34:57;;;;;;;11.80;3.70;;;6.90;99.90;;;;;;5072594;28;20492;-64
2021/03/22 09:37:47;;;;;;;7.30;3.23;;;7.10;99.90;;;;;;5112546;22;21063;-62
2021/03/22 09:40:22;;;;;;;7.57;4.33;;;7.40;99.90;;;;;;5114194;28;20378;-62
2021/03/22 09:43:06;;;;;;;6.10;3.50;;;7.40;99.90;;;;;;5113768;28;20395;-62
2021/03/22 09:45:51;;;;;;;6.97;3.40;;;7.60;99.90;;;;;;5113965;28;20476;-63
2021/03/22 09:48:16;;;;;;;11.10;4.03;;;7.40;99.90;;;;;;5094006;28;20815;-61
2021/03/22 09:50:52;;;;;;;10.57;4.17;;;7.30;99.90;;;;;;5093641;28;20396;-62
2021/03/22 09:53:22;;;;;;;10.03;3.80;;;7.40;99.90;;;;;;5093376;28;20248;-63
2021/03/22 09:55:50;;;;;;;12.47;3.93;;;7.60;99.90;;;;;;5093531;28;20822;-62
2021/03/22 09:58:36;;;;;;;7.10;3.10;;;7.60;99.90;;;;;;5093185;28;20448;-62
2021/03/22 10:01:14;;;;;;;8.40;4.33;;;7.80;99.90;;;;;;5094023;28;20410;-63
2021/03/22 10:03:41;;;;;;;10.17;3.90;;;7.90;99.90;;;;;;5093895;28;20861;-61
2021/03/22 10:06:39;;;;;;;12.47;3.97;;;7.70;99.90;;;;;;5092893;28;20452;-62
2021/03/22 10:09:08;;;;;;;7.57;3.80;;;7.80;99.90;;;;;;5093501;28;20968;-63
2021/03/22 10:11:41;;;;;;;9.80;3.43;;;8.10;99.90;;;;;;5093362;28;20969;-62
2021/03/22 10:14:14;;;;;;;8.13;3.67;;;8.40;99.90;;;;;;5093366;28;20383;-63
2021/03/22 10:16:41;;;;;;;7.37;3.70;;;8.30;99.90;;;;;;5092934;28;20403;-63
2021/03/22 10:19:21;;;;;;;8.03;3.03;;;8.20;99.90;;;;;;5095306;28;20404;-62
2021/03/22 10:22:16;;;;;;;9.67;3.50;;;8.00;99.90;;;;;;5096735;28;20423;-62
2021/03/22 10:24:54;;;;;;;11.77;3.27;;;8.10;99.90;;;;;;5090386;28;20525;-63
2021/03/22 10:27:46;;;;;;;7.10;2.90;;;8.00;99.90;;;;;;5097011;28;20416;-62
2021/03/22 10:30:17;;;;;;;6.57;2.57;;;8.00;99.90;;;;;;5075741;28;20404;-63
2021/03/22 10:32:49;;;;;;;8.27;3.67;;;7.90;99.90;;;;;;5097113;28;20386;-63
2021/03/22 10:35:20;;;;;;;8.07;3.57;;;8.10;99.90;;;;;;5097061;28;20392;-63
2021/03/22 10:37:55;;;;;;;7.70;2.70;;;7.80;99.90;;;;;;5096106;28;20478;-61
2021/03/22 10:40:27;;;;;;;5.50;2.70;;;7.30;99.90;;;;;;5096573;28;20410;-61
2021/03/22 10:42:56;;;;;;;7.10;3.43;;;7.30;99.90;;;;;;5097069;28;20388;-60
2021/03/22 10:45:24;;;;;;;6.37;3.20;;;7.40;99.90;;;;;;5096450;28;20442;-61
2021/03/22 10:47:55;;;;;;;9.07;3.13;;;7.50;99.90;;;;;;5096935;28;20427;-61
2021/03/22 10:50:36;;;;;;;6.97;3.63;;;7.30;99.90;;;;;;5096681;28;20381;-60
2021/03/22 10:53:03;;;;;;;7.27;3.83;;;7.30;99.90;;;;;;5096041;28;20899;-61
2021/03/22 10:55:30;;;;;;;5.13;3.17;;;7.40;99.90;;;;;;5096173;28;20403;-61
2021/03/22 10:57:57;;;;;;;7.57;3.00;;;7.30;99.90;;;;;;5096203;28;20998;-61
2021/03/22 11:00:38;;;;;;;6.60;2.53;;;7.30;99.90;;;;;;5096242;28;20769;-61
2021/03/22 11:03:06;;;;;;;9.70;3.50;;;7.40;99.90;;;;;;5085787;28;20392;-62
2021/03/22 11:05:42;;;;;;;5.40;3.10;;;7.40;99.90;;;;;;5058573;28;20448;-62
2021/03/22 11:08:27;;;;;;;12.90;4.60;;;7.60;99.90;;;;;;5092793;28;20404;-61
2021/03/22 11:10:58;;;;;;;9.90;3.20;;;7.50;99.90;;;;;;5096363;28;20371;-62
2021/03/22 11:13:28;;;;;;;5.00;2.97;;;7.30;99.90;;;;;;5096086;28;20380;-60
2021/03/22 11:15:54;;;;;;;11.63;3.80;;;7.50;99.90;;;;;;5095815;28;20403;-62
2021/03/22 11:18:20;;;;;;;10.07;3.57;;;7.50;99.90;;;;;;5095816;28;20407;-61
2021/03/22 11:20:49;;;;;;;6.80;3.57;;;7.60;99.90;;;;;;5096154;28;20411;-63
2021/03/22 11:23:16;;;;;;;5.37;3.33;;;7.60;99.90;;;;;;5095656;28;20403;-62
2021/03/22 11:25:43;;;;;;;6.87;3.30;;;7.60;99.90;;;;;;5095609;28;20445;-63
2021/03/22 11:28:25;;;;;;;6.63;2.80;;;7.70;99.90;;;;;;5095717;28;20410;-62
2021/03/22 11:30:54;;;;;;;6.17;3.03;;;7.70;99.90;;;;;;5095503;28;20459;-62
2021/03/22 11:33:39;;;;;;;4.90;3.10;;;7.80;99.90;;;;;;5095826;28;20404;-62
2021/03/22 11:36:07;;;;;;;7.93;2.80;;;8.00;99.90;;;;;;5077327;28;20457;-63
2021/03/22 11:38:37;;;;;;;4.90;3.27;;;7.90;99.90;;;;;;5095305;28;20393;-60
2021/03/22 11:41:02;;;;;;;4.90;2.67;;;7.90;99.90;;;;;;5098467;28;20407;-62
2021/03/22 11:43:34;;;;;;;5.90;2.90;;;8.10;99.90;;;;;;5099697;28;20407;-63
2021/03/22 11:46:23;;;;;;;5.87;3.07;;;8.00;99.90;;;;;;5096670;28;20205;-63
2021/03/22 11:48:49;;;;;;;8.30;3.30;;;8.20;99.90;;;;;;5097778;28;20813;-62
2021/03/22 11:51:15;;;;;;;8.10;3.17;;;8.20;99.90;;;;;;5096175;28;20835;-63
2021/03/22 11:54:08;;;;;;;11.97;3.80;;;8.30;99.90;;;;;;5095522;28;20164;-62
2021/03/22 11:56:36;;;;;;;10.13;2.80;;;8.50;99.90;;;;;;5095807;28;20423;-61
2021/03/22 11:59:19;;;;;;;6.07;3.13;;;8.60;99.90;;;;;;5095890;28;20392;-62
2021/03/22 12:02:13;;;;;;;7.30;2.97;;;8.80;99.90;;;;;;5095382;28;20782;-61
2021/03/22 12:04:39;;;;;;;6.43;3.10;;;8.70;99.90;;;;;;5095217;28;20459;-62
2021/03/22 12:07:10;;;;;;;6.63;3.23;;;8.90;99.90;;;;;;5094525;28;20428;-62
2021/03/22 12:09:40;;;;;;;11.70;3.30;;;9.30;99.80;;;;;;5095003;28;20478;-62
2021/03/22 12:12:14;;;;;;;4.93;3.00;;;9.30;99.40;;;;;;5095597;28;20805;-61
2021/03/22 12:14:40;;;;;;;8.43;3.10;;;9.20;99.00;;;;;;5095139;28;20400;-63
2021/03/22 12:17:32;;;;;;;5.33;2.63;;;9.10;99.40;;;;;;5073831;28;20497;-63
2021/03/22 12:19:59;;;;;;;8.53;3.40;;;9.20;99.90;;;;;;5051045;28;20190;-63
2021/03/22 12:22:25;;;;;;;7.53;3.07;;;9.20;99.70;;;;;;5054508;28;20491;-62
2021/03/22 12:24:51;;;;;;;7.13;3.30;;;9.30;99.90;;;;;;5054623;28;20449;-62
2021/03/22 12:27:19;;;;;;;5.43;2.97;;;9.30;99.90;;;;;;5054619;28;20427;-62
2021/03/22 12:29:44;;;;;;;8.67;4.03;;;9.20;99.50;;;;;;5079334;28;20547;-62
2021/03/22 12:32:21;;;;;;;5.43;3.30;;;8.70;99.90;;;;;;5095011;28;20417;-62
2021/03/22 12:34:46;;;;;;;6.73;3.30;;;8.50;99.90;;;;;;5095118;28;20168;-61
2021/03/22 12:37:27;;;;;;;10.03;3.80;;;8.40;99.90;;;;;;5094396;28;20972;-61
2021/03/22 12:39:53;;;;;;;7.27;3.67;;;8.40;99.90;;;;;;5054641;28;20286;-64
2021/03/22 12:42:19;;;;;;;8.67;3.40;;;8.40;99.90;;;;;;5053686;28;20404;-63
2021/03/22 12:44:45;;;;;;;8.20;3.00;;;8.10;99.90;;;;;;5054223;28;20832;-63
2021/03/22 12:47:32;;;;;;;7.67;3.27;;;7.90;99.90;;;;;;5054507;28;20457;-62
2021/03/22 12:49:58;;;;;;;4.73;3.57;;;7.80;99.90;;;;;;5054524;28;20899;-62
2021/03/22 12:52:24;;;;;;;7.10;2.80;;;8.00;99.90;;;;;;5053843;28;20416;-64
2021/03/22 12:54:50;;;;;;;5.80;3.20;;;7.90;99.90;;;;;;5054452;28;20420;-64
2021/03/22 12:57:22;;;;;;;3.77;3.00;;;7.80;99.90;;;;;;5075962;28;20194;-63
2021/03/22 12:59:49;;;;;;;4.87;3.47;;;7.90;99.90;;;;;;5074176;28;20765;-64
2021/03/22 13:02:17;;;;;;;4.33;3.57;;;7.80;99.90;;;;;;5073501;28;20443;-60
2021/03/22 13:04:44;;;;;;;10.83;4.40;;;7.70;99.90;;;;;;5053828;28;20454;-63
2021/03/22 13:07:10;;;;;;;5.63;4.23;;;7.60;99.90;;;;;;5053896;28;20418;-61
2021/03/22 13:09:40;;;;;;;10.07;3.60;;;7.50;99.90;;;;;;5053670;28;20572;-63
2021/03/22 13:12:16;;;;;;;11.80;3.60;;;7.60;99.90;;;;;;5054095;28;20402;-64
2021/03/22 13:14:42;;;;;;;9.17;4.50;;;7.60;99.90;;;;;;5053404;28;20482;-62
2021/03/22 13:17:10;;;;;;;12.90;4.53;;;7.60;99.90;;;;;;5057876;28;21004;-62